Time;durP1;ratioP1;P1;durP2;ratioP2;P2;SDS_P1;SDS_P2;PMS_P1;PMS_P2;Temp;Humidity;BMP_temperature;BMP_pressure;BME280_temperature;BME280_humidity;BME280_pressure;Samples;Min_cycle;Max_cycle;Signal;HPM_P1;HPM_P2
2022/06/10 00:01:08;;;;;;;0.00;0.00;;;;;;;;;;5045505;28;20137;-70
2022/06/10 00:03:36;;;;;;;0.00;0.00;;;;;;;;;;5049699;28;20480;-70
2022/06/10 00:06:09;;;;;;;0.35;0.35;;;;;;;;;;5048362;28;20115;-70
2022/06/10 00:08:39;;;;;;;0.00;0.00;;;;;;;;;;5045995;28;20053;-70
2022/06/10 00:11:08;;;;;;;0.00;0.00;;;;;;;;;;5041345;28;20124;-70
2022/06/10 00:13:39;;;;;;;2.05;1.00;;;;;;;;;;5049752;28;20123;-70
2022/06/10 00:16:09;;;;;;;0.00;0.00;;;;;;;;;;5048143;28;20131;-69
2022/06/10 00:18:37;;;;;;;0.00;0.00;;;;;;;;;;5043674;28;20597;-69
2022/06/10 00:21:08;;;;;;;0.00;0.00;;;;;;;;;;5048492;28;20044;-70
2022/06/10 00:23:36;;;;;;;0.00;0.00;;;;;;;;;;5042890;28;20068;-70
2022/06/10 00:26:08;;;;;;;0.00;0.00;;;;;;;;;;5042645;28;20136;-70
2022/06/10 00:28:36;;;;;;;1.73;0.80;;;;;;;;;;5047973;28;20084;-69
2022/06/10 00:31:09;;;;;;;0.10;0.10;;;;;;;;;;5048583;28;20123;-69
2022/06/10 00:33:40;;;;;;;0.00;0.00;;;;;;;;;;5047443;28;20534;-70
2022/06/10 00:36:09;;;;;;;0.15;0.15;;;;;;;;;;5047784;28;20055;-70
2022/06/10 00:38:38;;;;;;;0.00;0.00;;;;;;;;;;5044376;28;20063;-69
2022/06/10 00:41:06;;;;;;;0.00;0.00;;;;;;;;;;5045744;28;20132;-69
2022/06/10 00:43:36;;;;;;;0.00;0.00;;;;;;;;;;5047624;28;20041;-69
2022/06/10 00:46:15;;;;;;;0.00;0.00;;;;;;;;;;5046453;28;20048;-70
2022/06/10 00:48:47;;;;;;;0.00;0.00;;;;;;;;;;5046259;28;20045;-68
2022/06/10 00:51:20;;;;;;;0.00;0.00;;;;;;;;;;5047005;28;20277;-69
2022/06/10 00:53:51;;;;;;;0.00;0.00;;;;;;;;;;5045548;28;20049;-69
2022/06/10 00:56:21;;;;;;;0.00;0.00;;;;;;;;;;5044070;28;20139;-69
2022/06/10 00:58:53;;;;;;;0.10;0.10;;;;;;;;;;5046017;28;20057;-69
2022/06/10 01:01:26;;;;;;;3.70;1.85;;;;;;;;;;5048686;28;20057;-69
2022/06/10 01:03:55;;;;;;;0.20;0.20;;;;;;;;;;5051951;28;20055;-70
2022/06/10 01:06:26;;;;;;;0.00;0.00;;;;;;;;;;5045013;28;20496;-70
2022/06/10 01:08:55;;;;;;;0.10;0.10;;;;;;;;;;5045977;28;20084;-70
2022/06/10 01:11:29;;;;;;;0.00;0.00;;;;;;;;;;5050338;28;20077;-70
2022/06/10 01:14:02;;;;;;;0.00;0.00;;;;;;;;;;5051950;28;20040;-69
2022/06/10 01:16:37;;;;;;;0.00;0.00;;;;;;;;;;5053320;28;20076;-69
2022/06/10 01:19:12;;;;;;;0.00;0.00;;;;;;;;;;5050750;28;20041;-70
2022/06/10 01:21:59;;;;;;;0.00;0.00;;;;;;;;;;5050449;28;20132;-69
2022/06/10 01:24:42;;;;;;;0.00;0.00;;;;;;;;;;5050107;28;20041;-69
2022/06/10 01:30:13;;;;;;;0.30;0.30;;;;;;;;;;5048791;28;20137;-69
2022/06/10 01:32:45;;;;;;;0.50;0.50;;;;;;;;;;5049084;28;20652;-69
2022/06/10 01:35:18;;;;;;;0.00;0.00;;;;;;;;;;5048436;28;20063;-69
2022/06/10 01:37:53;;;;;;;0.08;0.08;;;;;;;;;;5052053;28;20077;-70
2022/06/10 01:40:25;;;;;;;0.00;0.00;;;;;;;;;;5047954;28;20048;-69
2022/06/10 01:42:56;;;;;;;0.00;0.00;;;;;;;;;;5050480;28;20045;-70
2022/06/10 01:45:30;;;;;;;0.00;0.00;;;;;;;;;;5049448;28;20037;-69
2022/06/10 01:48:02;;;;;;;0.00;0.00;;;;;;;;;;5045090;28;20473;-69
2022/06/10 01:50:47;;;;;;;0.00;0.00;;;;;;;;;;5048821;28;20041;-69
2022/06/10 01:53:21;;;;;;;0.10;0.10;;;;;;;;;;5046199;28;20079;-70
2022/06/10 01:55:50;;;;;;;0.35;0.35;;;;;;;;;;5049518;28;20115;-70
2022/06/10 01:58:23;;;;;;;0.00;0.00;;;;;;;;;;5051515;28;20053;-70
2022/06/10 02:00:54;;;;;;;0.32;0.32;;;;;;;;;;5047710;28;20131;-70
2022/06/10 02:03:28;;;;;;;0.00;0.00;;;;;;;;;;5046287;28;20083;-70
2022/06/10 02:05:58;;;;;;;0.10;0.10;;;;;;;;;;5049615;28;20053;-70
2022/06/10 02:08:29;;;;;;;0.52;0.52;;;;;;;;;;5050391;28;20575;-70
2022/06/10 02:11:01;;;;;;;0.38;0.38;;;;;;;;;;5048484;28;20156;-70
2022/06/10 02:13:40;;;;;;;0.00;0.00;;;;;;;;;;5050286;28;20503;-70
2022/06/10 02:16:10;;;;;;;0.00;0.00;;;;;;;;;;5050877;28;20131;-70
2022/06/10 02:18:42;;;;;;;0.00;0.00;;;;;;;;;;5049388;28;20053;-69
2022/06/10 02:21:13;;;;;;;0.00;0.00;;;;;;;;;;5051488;28;20139;-70
2022/06/10 02:23:43;;;;;;;0.00;0.00;;;;;;;;;;5051669;28;20448;-70
2022/06/10 02:26:12;;;;;;;0.03;0.03;;;;;;;;;;5046930;28;20125;-69
2022/06/10 02:28:43;;;;;;;0.00;0.00;;;;;;;;;;5047701;28;20500;-70
2022/06/10 02:31:17;;;;;;;0.10;0.10;;;;;;;;;;5048240;28;20048;-69
2022/06/10 02:33:48;;;;;;;0.00;0.00;;;;;;;;;;5044869;28;20064;-70
2022/06/10 02:36:19;;;;;;;0.00;0.00;;;;;;;;;;5051203;28;20965;-71
2022/06/10 02:38:51;;;;;;;0.10;0.10;;;;;;;;;;5047446;28;20053;-71
2022/06/10 02:41:27;;;;;;;0.00;0.00;;;;;;;;;;5046536;28;20381;-70
2022/06/10 02:43:58;;;;;;;0.10;0.10;;;;;;;;;;5048005;28;20148;-70
2022/06/10 02:46:28;;;;;;;0.00;0.00;;;;;;;;;;5048711;28;20041;-70
2022/06/10 02:49:04;;;;;;;0.00;0.00;;;;;;;;;;5051451;28;20180;-69
2022/06/10 02:51:32;;;;;;;0.00;0.00;;;;;;;;;;5048842;28;20077;-69
2022/06/10 02:54:03;;;;;;;0.00;0.00;;;;;;;;;;5049198;28;20585;-68
2022/06/10 02:56:31;;;;;;;0.03;0.03;;;;;;;;;;5048001;28;20880;-68
2022/06/10 03:01:50;;;;;;;0.00;0.00;;;;;;;;;;5044902;28;20084;-68
2022/06/10 03:04:27;;;;;;;0.00;0.00;;;;;;;;;;5049054;28;20127;-68
2022/06/10 03:07:19;;;;;;;0.00;0.00;;;;;;;;;;5048464;28;20053;-69
2022/06/10 03:09:58;;;;;;;0.00;0.00;;;;;;;;;;5050628;28;20132;-68
2022/06/10 03:12:31;;;;;;;0.40;0.40;;;;;;;;;;5048525;28;20047;-69
2022/06/10 03:15:06;;;;;;;0.00;0.00;;;;;;;;;;5036224;28;20051;-69
2022/06/10 03:17:40;;;;;;;0.00;0.00;;;;;;;;;;5048341;28;20041;-69
2022/06/10 03:20:15;;;;;;;0.00;0.00;;;;;;;;;;5048960;28;20131;-69
2022/06/10 03:23:07;;;;;;;0.00;0.00;;;;;;;;;;5040441;28;20461;-69
2022/06/10 03:25:37;;;;;;;0.00;0.00;;;;;;;;;;5045475;28;20136;-69
2022/06/10 03:28:08;;;;;;;0.00;0.00;;;;;;;;;;5047740;28;20072;-69
2022/06/10 03:30:41;;;;;;;0.20;0.20;;;;;;;;;;5044452;28;20512;-69
2022/06/10 03:33:12;;;;;;;0.00;0.00;;;;;;;;;;5044749;28;20080;-69
2022/06/10 03:35:45;;;;;;;0.03;0.03;;;;;;;;;;5049060;28;20075;-69
2022/06/10 03:38:14;;;;;;;0.10;0.10;;;;;;;;;;5048716;28;20069;-70
2022/06/10 03:40:43;;;;;;;0.00;0.00;;;;;;;;;;5049891;28;20053;-69
2022/06/10 03:43:14;;;;;;;0.00;0.00;;;;;;;;;;5044858;28;20155;-69
2022/06/10 03:45:44;;;;;;;0.00;0.00;;;;;;;;;;5045617;28;20109;-70
2022/06/10 03:48:15;;;;;;;0.00;0.00;;;;;;;;;;5040217;28;20037;-69
2022/06/10 03:50:46;;;;;;;0.00;0.00;;;;;;;;;;5050140;28;20445;-69
2022/06/10 03:53:17;;;;;;;0.10;0.10;;;;;;;;;;5048567;28;20063;-69
2022/06/10 03:55:45;;;;;;;0.00;0.00;;;;;;;;;;5047423;28;20115;-69
2022/06/10 03:58:14;;;;;;;0.00;0.00;;;;;;;;;;5049364;28;20168;-70
2022/06/10 04:00:43;;;;;;;0.10;0.10;;;;;;;;;;5045581;28;20056;-69
2022/06/10 04:03:11;;;;;;;0.10;0.10;;;;;;;;;;5047240;28;20144;-69
2022/06/10 04:05:40;;;;;;;0.00;0.00;;;;;;;;;;5048724;28;20044;-70
2022/06/10 04:08:30;;;;;;;0.00;0.00;;;;;;;;;;5048536;28;20041;-69
2022/06/10 04:10:58;;;;;;;0.00;0.00;;;;;;;;;;5047926;28;20045;-69
2022/06/10 04:13:26;;;;;;;0.00;0.00;;;;;;;;;;5049643;28;20044;-69
2022/06/10 04:15:55;;;;;;;0.00;0.00;;;;;;;;;;5048293;28;20136;-69
2022/06/10 04:18:23;;;;;;;0.00;0.00;;;;;;;;;;5047880;28;20467;-69
2022/06/10 04:20:51;;;;;;;0.00;0.00;;;;;;;;;;5049431;28;20048;-69
2022/06/10 04:23:20;;;;;;;0.10;0.10;;;;;;;;;;5047394;28;20136;-69
2022/06/10 04:25:50;;;;;;;0.00;0.00;;;;;;;;;;5048411;28;20049;-69
2022/06/10 04:28:18;;;;;;;0.00;0.00;;;;;;;;;;5048354;28;20160;-70
2022/06/10 04:30:48;;;;;;;0.00;0.00;;;;;;;;;;5045994;28;20055;-70
2022/06/10 04:33:16;;;;;;;0.00;0.00;;;;;;;;;;5047878;28;20111;-70
2022/06/10 04:35:46;;;;;;;0.17;0.17;;;;;;;;;;5044318;28;20416;-69
2022/06/10 04:38:15;;;;;;;0.03;0.03;;;;;;;;;;5043743;28;20454;-70
2022/06/10 04:40:44;;;;;;;0.00;0.00;;;;;;;;;;5044458;28;20045;-69
2022/06/10 04:43:14;;;;;;;0.10;0.10;;;;;;;;;;5046958;28;20168;-69
2022/06/10 04:45:44;;;;;;;0.00;0.00;;;;;;;;;;5043383;28;20577;-69
2022/06/10 04:48:14;;;;;;;0.00;0.00;;;;;;;;;;5041551;28;20125;-69
2022/06/10 04:50:42;;;;;;;0.00;0.00;;;;;;;;;;5045397;28;20487;-70
2022/06/10 04:53:11;;;;;;;0.00;0.00;;;;;;;;;;5038948;28;20511;-70
2022/06/10 04:55:40;;;;;;;0.10;0.10;;;;;;;;;;5017644;28;20381;-70
2022/06/10 04:58:08;;;;;;;0.00;0.00;;;;;;;;;;5024625;28;20132;-70
2022/06/10 05:00:42;;;;;;;0.20;0.20;;;;;;;;;;5024227;28;20495;-70
2022/06/10 05:03:11;;;;;;;0.10;0.10;;;;;;;;;;5025084;28;20053;-70
2022/06/10 05:05:39;;;;;;;0.10;0.10;;;;;;;;;;5022404;28;20080;-70
2022/06/10 05:08:08;;;;;;;0.00;0.00;;;;;;;;;;5035307;28;20234;-68
2022/06/10 05:10:37;;;;;;;1.40;1.23;;;;;;;;;;5026382;28;20369;-68
2022/06/10 05:13:06;;;;;;;0.10;0.10;;;;;;;;;;5016446;28;20063;-68
2022/06/10 05:15:35;;;;;;;0.00;0.00;;;;;;;;;;5026300;28;20045;-68
2022/06/10 05:18:06;;;;;;;0.93;0.85;;;;;;;;;;5022848;28;20152;-68
2022/06/10 05:20:37;;;;;;;0.00;0.00;;;;;;;;;;5022925;28;20461;-68
2022/06/10 05:23:06;;;;;;;0.00;0.00;;;;;;;;;;5022595;28;20133;-68
2022/06/10 05:25:34;;;;;;;0.00;0.00;;;;;;;;;;5021399;28;20128;-68
2022/06/10 05:28:03;;;;;;;0.00;0.00;;;;;;;;;;5017157;28;20080;-68
2022/06/10 05:30:32;;;;;;;0.52;0.52;;;;;;;;;;5020185;28;20046;-68
2022/06/10 05:33:01;;;;;;;0.00;0.00;;;;;;;;;;5026625;28;20450;-68
2022/06/10 05:35:32;;;;;;;0.00;0.00;;;;;;;;;;5024906;28;20053;-68
2022/06/10 05:38:00;;;;;;;0.00;0.00;;;;;;;;;;5025179;28;20531;-68
2022/06/10 05:40:30;;;;;;;0.05;0.05;;;;;;;;;;5027753;28;21216;-68
2022/06/10 05:42:59;;;;;;;0.00;0.00;;;;;;;;;;5021199;28;20053;-68
2022/06/10 05:45:27;;;;;;;0.10;0.10;;;;;;;;;;5022596;28;20144;-69
2022/06/10 05:47:58;;;;;;;0.00;0.00;;;;;;;;;;5024545;28;20386;-68
2022/06/10 05:50:28;;;;;;;0.00;0.00;;;;;;;;;;5024052;28;21187;-69
2022/06/10 05:52:58;;;;;;;0.05;0.05;;;;;;;;;;5032342;28;20061;-69
2022/06/10 05:55:27;;;;;;;0.00;0.00;;;;;;;;;;5029721;28;20185;-70
2022/06/10 05:57:56;;;;;;;0.00;0.00;;;;;;;;;;5029277;28;20064;-70
2022/06/10 06:00:25;;;;;;;0.10;0.10;;;;;;;;;;5026742;28;20140;-70
2022/06/10 06:02:54;;;;;;;0.00;0.00;;;;;;;;;;5028726;28;20092;-70
2022/06/10 06:05:24;;;;;;;0.00;0.00;;;;;;;;;;5026520;28;20495;-70
2022/06/10 06:07:53;;;;;;;0.03;0.03;;;;;;;;;;5016731;28;20076;-70
2022/06/10 06:10:25;;;;;;;0.00;0.00;;;;;;;;;;5008148;28;20049;-70
2022/06/10 06:12:54;;;;;;;0.00;0.00;;;;;;;;;;5002117;28;20139;-70
2022/06/10 06:15:23;;;;;;;0.10;0.10;;;;;;;;;;5027970;28;20056;-70
2022/06/10 06:17:52;;;;;;;0.00;0.00;;;;;;;;;;4999387;28;20066;-70
2022/06/10 06:20:22;;;;;;;0.00;0.00;;;;;;;;;;5020335;28;20045;-70
2022/06/10 06:22:50;;;;;;;0.00;0.00;;;;;;;;;;5025945;28;20132;-70
2022/06/10 06:25:19;;;;;;;0.17;0.17;;;;;;;;;;5032000;28;20049;-70
2022/06/10 06:27:50;;;;;;;0.00;0.00;;;;;;;;;;5023805;28;20053;-70
2022/06/10 06:30:19;;;;;;;0.00;0.00;;;;;;;;;;5027863;28;20081;-70
2022/06/10 06:32:48;;;;;;;0.80;0.75;;;;;;;;;;5031733;28;20087;-70
2022/06/10 06:35:16;;;;;;;0.20;0.20;;;;;;;;;;5032641;28;20584;-70
2022/06/10 06:37:45;;;;;;;0.05;0.05;;;;;;;;;;5031503;28;20103;-70
2022/06/10 06:40:14;;;;;;;0.00;0.00;;;;;;;;;;5033896;28;20478;-71
2022/06/10 06:42:44;;;;;;;0.30;0.30;;;;;;;;;;5028430;28;20120;-70
2022/06/10 06:45:15;;;;;;;0.08;0.08;;;;;;;;;;5019433;28;20041;-70
2022/06/10 06:47:51;;;;;;;0.10;0.10;;;;;;;;;;5019023;28;20058;-70
2022/06/10 06:50:23;;;;;;;0.00;0.00;;;;;;;;;;5019443;28;20045;-70
2022/06/10 06:52:53;;;;;;;0.00;0.00;;;;;;;;;;5021661;28;20049;-70
2022/06/10 06:55:27;;;;;;;0.00;0.00;;;;;;;;;;5009705;28;20127;-70
2022/06/10 06:57:56;;;;;;;0.10;0.10;;;;;;;;;;5017366;28;20045;-70
2022/06/10 07:00:27;;;;;;;0.05;0.05;;;;;;;;;;5012773;28;20490;-70
2022/06/10 07:02:56;;;;;;;0.05;0.05;;;;;;;;;;5019060;28;20535;-70
2022/06/10 07:05:25;;;;;;;0.00;0.00;;;;;;;;;;5014686;28;20050;-70
2022/06/10 07:07:54;;;;;;;0.00;0.00;;;;;;;;;;5010130;28;20081;-70
2022/06/10 07:10:23;;;;;;;0.00;0.00;;;;;;;;;;5012252;28;20556;-70
2022/06/10 07:12:52;;;;;;;0.00;0.00;;;;;;;;;;5013776;28;20041;-70
2022/06/10 07:15:21;;;;;;;0.00;0.00;;;;;;;;;;5012204;28;20445;-70
2022/06/10 07:17:51;;;;;;;0.00;0.00;;;;;;;;;;5011820;28;20061;-71
2022/06/10 07:20:22;;;;;;;0.05;0.05;;;;;;;;;;5024177;28;20062;-70
2022/06/10 07:22:51;;;;;;;0.00;0.00;;;;;;;;;;5008980;28;20054;-70
2022/06/10 07:25:19;;;;;;;0.08;0.08;;;;;;;;;;5012804;28;20056;-69
2022/06/10 07:27:48;;;;;;;0.00;0.00;;;;;;;;;;5010501;28;20045;-70
2022/06/10 07:30:18;;;;;;;0.00;0.00;;;;;;;;;;5012107;28;20502;-70
2022/06/10 07:32:47;;;;;;;0.10;0.10;;;;;;;;;;5010842;28;20045;-70
2022/06/10 07:35:18;;;;;;;0.00;0.00;;;;;;;;;;5010543;28;20046;-70
2022/06/10 07:37:47;;;;;;;0.03;0.03;;;;;;;;;;5008154;28;20081;-70
2022/06/10 07:43:21;;;;;;;0.35;0.35;;;;;;;;;;5011065;28;20050;-70
2022/06/10 07:45:49;;;;;;;0.05;0.05;;;;;;;;;;5016850;28;20045;-69
2022/06/10 07:48:18;;;;;;;0.00;0.00;;;;;;;;;;5007803;28;20054;-70
2022/06/10 07:50:48;;;;;;;0.00;0.00;;;;;;;;;;5019106;28;20081;-70
2022/06/10 07:53:18;;;;;;;0.00;0.00;;;;;;;;;;5020077;28;20706;-70
2022/06/10 07:55:48;;;;;;;0.10;0.10;;;;;;;;;;5027952;28;20049;-70
2022/06/10 07:58:17;;;;;;;0.05;0.05;;;;;;;;;;5028724;28;20080;-70
2022/06/10 08:00:46;;;;;;;0.20;0.20;;;;;;;;;;5029490;28;20099;-70
2022/06/10 08:03:15;;;;;;;0.00;0.00;;;;;;;;;;5028275;28;20096;-70
2022/06/10 08:05:45;;;;;;;0.20;0.20;;;;;;;;;;5029593;28;20056;-70
2022/06/10 08:08:16;;;;;;;0.00;0.00;;;;;;;;;;5027722;28;20490;-70
2022/06/10 08:10:45;;;;;;;0.00;0.00;;;;;;;;;;5030457;28;20120;-70
2022/06/10 08:13:14;;;;;;;0.00;0.00;;;;;;;;;;5029962;28;20053;-72
2022/06/10 08:15:45;;;;;;;0.00;0.00;;;;;;;;;;5030154;28;20496;-70
2022/06/10 08:18:14;;;;;;;0.00;0.00;;;;;;;;;;5027167;28;20041;-70
2022/06/10 08:23:37;;;;;;;0.00;0.00;;;;;;;;;;5025713;28;20057;-70
2022/06/10 08:26:08;;;;;;;0.10;0.10;;;;;;;;;;5037458;28;20041;-70
2022/06/10 08:28:38;;;;;;;0.13;0.13;;;;;;;;;;5027577;28;20188;-70
2022/06/10 08:31:06;;;;;;;0.00;0.00;;;;;;;;;;5028875;28;20049;-70
2022/06/10 08:33:35;;;;;;;0.00;0.00;;;;;;;;;;5027630;28;20057;-70
2022/06/10 08:36:08;;;;;;;0.22;0.22;;;;;;;;;;5023332;28;20132;-70
2022/06/10 08:38:41;;;;;;;0.52;0.52;;;;;;;;;;5019985;28;20049;-70
2022/06/10 08:41:19;;;;;;;0.30;0.10;;;;;;;;;;5020499;28;20408;-70
2022/06/10 08:43:53;;;;;;;0.00;0.00;;;;;;;;;;5026831;28;20532;-70
2022/06/10 08:46:30;;;;;;;0.00;0.00;;;;;;;;;;5022016;28;20041;-70
2022/06/10 08:49:17;;;;;;;0.00;0.00;;;;;;;;;;5025047;28;20045;-71
2022/06/10 08:51:51;;;;;;;0.28;0.28;;;;;;;;;;5013396;28;20100;-70
2022/06/10 08:54:26;;;;;;;0.57;0.57;;;;;;;;;;5041989;28;20052;-69
2022/06/10 08:56:57;;;;;;;0.00;0.00;;;;;;;;;;5045789;28;20053;-70
2022/06/10 08:59:29;;;;;;;0.00;0.00;;;;;;;;;;5045270;28;20496;-70
2022/06/10 09:02:05;;;;;;;0.20;0.20;;;;;;;;;;5046163;28;20124;-71
2022/06/10 09:04:52;;;;;;;0.10;0.10;;;;;;;;;;5045224;28;20147;-70
2022/06/10 09:07:24;;;;;;;0.10;0.10;;;;;;;;;;5041635;28;20489;-71
2022/06/10 09:09:55;;;;;;;0.15;0.15;;;;;;;;;;5044340;28;20049;-71
2022/06/10 09:12:37;;;;;;;0.10;0.10;;;;;;;;;;5040555;28;20123;-71
2022/06/10 09:15:06;;;;;;;0.00;0.00;;;;;;;;;;5034457;28;20159;-70
2022/06/10 09:17:38;;;;;;;0.00;0.00;;;;;;;;;;5045284;28;20517;-70
2022/06/10 09:20:11;;;;;;;0.10;0.10;;;;;;;;;;5041246;28;20045;-70
2022/06/10 09:22:42;;;;;;;0.00;0.00;;;;;;;;;;5035378;28;20045;-70
2022/06/10 09:25:14;;;;;;;0.00;0.00;;;;;;;;;;5045253;28;20090;-69
2022/06/10 09:27:44;;;;;;;0.00;0.00;;;;;;;;;;5047903;28;20068;-70
2022/06/10 09:30:14;;;;;;;0.00;0.00;;;;;;;;;;5046049;28;20129;-70
2022/06/10 09:32:49;;;;;;;0.10;0.10;;;;;;;;;;5055461;28;20052;-70
2022/06/10 09:35:27;;;;;;;0.63;0.45;;;;;;;;;;5045307;28;20392;-69
2022/06/10 09:37:58;;;;;;;0.03;0.03;;;;;;;;;;5047950;28;20045;-70
2022/06/10 09:40:39;;;;;;;0.00;0.00;;;;;;;;;;5048779;28;20084;-70
2022/06/10 09:43:26;;;;;;;0.03;0.03;;;;;;;;;;5046782;28;20080;-70
2022/06/10 09:46:02;;;;;;;0.00;0.00;;;;;;;;;;5048784;28;20045;-70
2022/06/10 09:48:50;;;;;;;0.57;0.52;;;;;;;;;;5048374;28;20045;-70
2022/06/10 09:51:23;;;;;;;0.00;0.00;;;;;;;;;;5047806;28;20520;-70
2022/06/10 09:54:01;;;;;;;0.10;0.10;;;;;;;;;;5046233;28;20059;-70
2022/06/10 09:56:43;;;;;;;0.00;0.00;;;;;;;;;;5044841;28;20048;-70
2022/06/10 09:59:16;;;;;;;0.17;0.17;;;;;;;;;;5012814;28;20749;-70
2022/06/10 10:01:58;;;;;;;0.00;0.00;;;;;;;;;;5043691;28;20049;-70
2022/06/10 10:04:44;;;;;;;0.00;0.00;;;;;;;;;;5046224;28;20040;-70
2022/06/10 10:07:17;;;;;;;0.00;0.00;;;;;;;;;;5024827;28;20053;-70
2022/06/10 10:09:49;;;;;;;0.00;0.00;;;;;;;;;;5042539;28;20045;-70
2022/06/10 10:12:32;;;;;;;0.57;0.22;;;;;;;;;;5042936;28;20160;-70
2022/06/10 10:15:05;;;;;;;0.00;0.00;;;;;;;;;;5048615;28;20500;-70
2022/06/10 10:17:39;;;;;;;0.00;0.00;;;;;;;;;;5045864;28;20061;-70
2022/06/10 10:20:11;;;;;;;0.25;0.25;;;;;;;;;;5040567;28;20111;-70
2022/06/10 10:22:47;;;;;;;0.00;0.00;;;;;;;;;;5042303;28;20049;-70
2022/06/10 10:25:17;;;;;;;0.00;0.00;;;;;;;;;;5042264;28;20099;-70
2022/06/10 10:27:49;;;;;;;0.30;0.30;;;;;;;;;;5041386;28;20088;-70
2022/06/10 10:30:19;;;;;;;0.10;0.10;;;;;;;;;;5046923;28;20041;-70
2022/06/10 10:32:51;;;;;;;0.00;0.00;;;;;;;;;;5043864;28;20045;-71
2022/06/10 10:35:21;;;;;;;0.10;0.10;;;;;;;;;;5046316;28;20476;-70
2022/06/10 10:37:54;;;;;;;0.00;0.00;;;;;;;;;;5047430;28;20137;-70
2022/06/10 10:40:24;;;;;;;0.10;0.05;;;;;;;;;;5049478;28;20106;-70
2022/06/10 10:42:55;;;;;;;0.15;0.15;;;;;;;;;;5041969;28;20059;-70
2022/06/10 10:45:26;;;;;;;0.00;0.00;;;;;;;;;;5049055;28;20055;-70
2022/06/10 10:47:56;;;;;;;0.00;0.00;;;;;;;;;;5041843;28;20084;-70
2022/06/10 10:50:29;;;;;;;0.00;0.00;;;;;;;;;;5048002;28;20140;-70
2022/06/10 10:53:00;;;;;;;0.00;0.00;;;;;;;;;;5051919;28;20495;-70
2022/06/10 10:55:32;;;;;;;0.10;0.10;;;;;;;;;;5044315;28;20102;-70
2022/06/10 10:58:08;;;;;;;0.20;0.20;;;;;;;;;;5039214;28;20053;-70
2022/06/10 11:00:39;;;;;;;0.00;0.00;;;;;;;;;;5039391;28;20055;-70
2022/06/10 11:03:08;;;;;;;0.00;0.00;;;;;;;;;;5036436;28;20076;-70
2022/06/10 11:05:39;;;;;;;0.28;0.28;;;;;;;;;;5043294;28;20477;-71
2022/06/10 11:08:19;;;;;;;0.00;0.00;;;;;;;;;;5042014;28;20049;-71
2022/06/10 11:11:17;;;;;;;0.10;0.10;;;;;;;;;;5044255;28;20147;-71
2022/06/10 11:13:50;;;;;;;0.00;0.00;;;;;;;;;;4997429;28;20460;-71
2022/06/10 11:16:19;;;;;;;0.00;0.00;;;;;;;;;;5043522;28;20470;-69
2022/06/10 11:18:48;;;;;;;0.00;0.00;;;;;;;;;;5049606;28;20180;-68
2022/06/10 11:21:17;;;;;;;0.00;0.00;;;;;;;;;;5043769;28;20492;-69
2022/06/10 11:23:51;;;;;;;0.00;0.00;;;;;;;;;;5040012;28;20060;-68
2022/06/10 11:26:22;;;;;;;0.00;0.00;;;;;;;;;;5043640;28;20080;-68
2022/06/10 11:29:00;;;;;;;0.40;0.35;;;;;;;;;;5041233;28;20092;-68
2022/06/10 11:31:30;;;;;;;0.17;0.17;;;;;;;;;;5037817;28;20072;-69
2022/06/10 11:34:00;;;;;;;0.15;0.15;;;;;;;;;;5038833;28;20076;-68
2022/06/10 11:36:35;;;;;;;0.00;0.00;;;;;;;;;;5044792;28;20051;-69
2022/06/10 11:39:13;;;;;;;0.40;0.40;;;;;;;;;;5041842;28;20053;-68
2022/06/10 11:41:42;;;;;;;0.00;0.00;;;;;;;;;;5036472;28;20049;-68
2022/06/10 11:44:16;;;;;;;0.20;0.20;;;;;;;;;;5041251;28;20154;-67
2022/06/10 11:46:48;;;;;;;0.17;0.17;;;;;;;;;;5031143;28;20055;-67
2022/06/10 11:49:22;;;;;;;0.32;0.32;;;;;;;;;;5029519;28;20050;-67
2022/06/10 11:51:54;;;;;;;0.00;0.00;;;;;;;;;;5039414;28;20044;-68
2022/06/10 11:54:29;;;;;;;0.05;0.05;;;;;;;;;;5043256;28;20103;-68
2022/06/10 11:59:56;;;;;;;0.00;0.00;;;;;;;;;;5046791;28;20076;-66
2022/06/10 12:02:31;;;;;;;0.00;0.00;;;;;;;;;;5045589;28;20378;-68
2022/06/10 12:05:27;;;;;;;0.00;0.00;;;;;;;;;;5039471;28;20045;-67
2022/06/10 12:08:02;;;;;;;0.00;0.00;;;;;;;;;;4987522;28;20477;-67
2022/06/10 12:10:34;;;;;;;0.00;0.00;;;;;;;;;;5040861;28;20132;-67
2022/06/10 12:13:03;;;;;;;0.00;0.00;;;;;;;;;;5043629;28;20435;-68
2022/06/10 12:15:36;;;;;;;0.00;0.00;;;;;;;;;;5038889;28;20049;-68
2022/06/10 12:18:10;;;;;;;0.00;0.00;;;;;;;;;;5039879;28;20400;-67
2022/06/10 12:20:42;;;;;;;0.00;0.00;;;;;;;;;;5041547;28;20579;-67
2022/06/10 12:23:15;;;;;;;0.38;0.38;;;;;;;;;;5034647;28;20048;-67
2022/06/10 12:25:52;;;;;;;0.00;0.00;;;;;;;;;;5033663;28;20103;-68
2022/06/10 12:28:27;;;;;;;0.00;0.00;;;;;;;;;;5038237;28;20053;-68
2022/06/10 12:31:01;;;;;;;0.00;0.00;;;;;;;;;;5038662;28;20045;-68
2022/06/10 12:33:37;;;;;;;0.15;0.15;;;;;;;;;;5040579;28;20053;-68
2022/06/10 12:36:13;;;;;;;0.40;0.40;;;;;;;;;;5041389;28;20033;-68
2022/06/10 12:38:43;;;;;;;0.00;0.00;;;;;;;;;;5039971;28;20055;-68
2022/06/10 12:41:14;;;;;;;0.10;0.10;;;;;;;;;;5040504;28;20114;-68
2022/06/10 12:43:45;;;;;;;0.00;0.00;;;;;;;;;;5044847;28;20060;-68
2022/06/10 12:46:27;;;;;;;0.00;0.00;;;;;;;;;;5043251;28;20106;-68
2022/06/10 12:48:56;;;;;;;0.28;0.28;;;;;;;;;;5042144;28;20485;-67
2022/06/10 12:51:29;;;;;;;0.00;0.00;;;;;;;;;;5039813;28;20056;-68
2022/06/10 12:54:00;;;;;;;0.00;0.00;;;;;;;;;;5040086;28;20503;-67
2022/06/10 12:56:31;;;;;;;0.25;0.25;;;;;;;;;;5041716;28;20369;-67
2022/06/10 12:59:23;;;;;;;0.10;0.10;;;;;;;;;;5045966;28;20473;-68
2022/06/10 13:01:53;;;;;;;0.00;0.00;;;;;;;;;;5037877;28;20060;-68
2022/06/10 13:04:37;;;;;;;0.00;0.00;;;;;;;;;;5047034;28;20122;-68
2022/06/10 13:07:06;;;;;;;0.47;0.47;;;;;;;;;;5037393;28;20059;-68
2022/06/10 13:09:36;;;;;;;0.00;0.00;;;;;;;;;;5039796;28;20053;-68
2022/06/10 13:12:19;;;;;;;0.10;0.10;;;;;;;;;;5045533;28;20527;-67
2022/06/10 13:14:48;;;;;;;0.10;0.10;;;;;;;;;;5020428;28;20402;-68
2022/06/10 13:17:28;;;;;;;0.22;0.22;;;;;;;;;;5035889;28;20071;-67
2022/06/10 13:20:11;;;;;;;0.25;0.20;;;;;;;;;;5036802;28;20567;-68
2022/06/10 13:22:40;;;;;;;0.00;0.00;;;;;;;;;;5040961;28;20090;-69
2022/06/10 13:25:21;;;;;;;0.10;0.10;;;;;;;;;;5045126;28;20148;-68
2022/06/10 13:27:50;;;;;;;0.00;0.00;;;;;;;;;;5032083;28;20053;-68
2022/06/10 13:30:20;;;;;;;0.03;0.03;;;;;;;;;;5038078;28;21617;-68
2022/06/10 13:32:53;;;;;;;0.00;0.00;;;;;;;;;;5046245;28;20044;-68
2022/06/10 13:35:23;;;;;;;0.65;0.40;;;;;;;;;;5039189;28;20048;-68
2022/06/10 13:37:56;;;;;;;0.00;0.00;;;;;;;;;;5037120;28;20076;-68
2022/06/10 13:40:26;;;;;;;0.20;0.20;;;;;;;;;;5043790;28;20041;-69
2022/06/10 13:42:55;;;;;;;0.00;0.00;;;;;;;;;;5039542;28;20080;-68
2022/06/10 13:45:25;;;;;;;0.00;0.00;;;;;;;;;;5049915;28;20049;-67
2022/06/10 13:47:59;;;;;;;0.00;0.00;;;;;;;;;;5041961;28;20049;-67
2022/06/10 13:50:46;;;;;;;0.00;0.00;;;;;;;;;;5035185;28;20049;-67
2022/06/10 13:53:22;;;;;;;0.00;0.00;;;;;;;;;;5041068;28;20162;-68
2022/06/10 13:55:56;;;;;;;0.10;0.10;;;;;;;;;;5040628;28;20056;-68
2022/06/10 13:58:26;;;;;;;0.00;0.00;;;;;;;;;;5041365;28;20076;-69
2022/06/10 14:00:55;;;;;;;0.00;0.00;;;;;;;;;;5049183;28;20573;-68
2022/06/10 14:03:42;;;;;;;0.00;0.00;;;;;;;;;;5044792;28;20081;-68
2022/06/10 14:06:18;;;;;;;0.00;0.00;;;;;;;;;;5041921;28;20053;-69
2022/06/10 14:08:49;;;;;;;0.00;0.00;;;;;;;;;;5047810;28;20606;-67
2022/06/10 14:11:19;;;;;;;0.10;0.08;;;;;;;;;;5045209;28;20045;-67
2022/06/10 14:13:52;;;;;;;0.25;0.25;;;;;;;;;;5037231;28;20052;-67
2022/06/10 14:16:20;;;;;;;0.00;0.00;;;;;;;;;;5045972;28;20056;-68
2022/06/10 14:18:51;;;;;;;0.10;0.10;;;;;;;;;;5042117;28;20140;-68
2022/06/10 14:21:20;;;;;;;0.00;0.00;;;;;;;;;;5049234;28;20128;-68
2022/06/10 14:24:06;;;;;;;0.30;0.30;;;;;;;;;;5042277;28;20481;-68
2022/06/10 14:26:34;;;;;;;0.00;0.00;;;;;;;;;;5043529;28;20087;-67
2022/06/10 14:29:14;;;;;;;0.00;0.00;;;;;;;;;;5045540;28;20081;-69
2022/06/10 14:31:44;;;;;;;0.00;0.00;;;;;;;;;;5045496;28;20495;-69
2022/06/10 14:34:19;;;;;;;0.00;0.00;;;;;;;;;;5044960;28;20132;-68
2022/06/10 14:36:53;;;;;;;0.00;0.00;;;;;;;;;;5044987;28;20057;-68
2022/06/10 14:39:25;;;;;;;0.00;0.00;;;;;;;;;;5041967;28;20133;-68
2022/06/10 14:41:57;;;;;;;0.08;0.08;;;;;;;;;;5045895;28;20080;-69
2022/06/10 14:44:27;;;;;;;0.10;0.10;;;;;;;;;;5050244;28;20165;-69
2022/06/10 14:47:05;;;;;;;0.03;0.03;;;;;;;;;;5044903;28;20053;-69
2022/06/10 14:49:39;;;;;;;0.17;0.17;;;;;;;;;;5047513;28;20044;-68
2022/06/10 14:52:11;;;;;;;0.00;0.00;;;;;;;;;;5045260;28;20439;-68
2022/06/10 14:54:39;;;;;;;0.00;0.00;;;;;;;;;;5023743;28;20158;-68
2022/06/10 14:57:11;;;;;;;0.00;0.00;;;;;;;;;;5026268;28;20052;-68
2022/06/10 14:59:39;;;;;;;0.10;0.10;;;;;;;;;;5026785;28;20385;-68
2022/06/10 15:02:11;;;;;;;0.00;0.00;;;;;;;;;;5027844;28;20049;-69
2022/06/10 15:06:14;;;;;;;0.10;0.10;;;;;;;;;;5027701;28;20112;-67
2022/06/10 15:07:29;;;;;;;0.00;0.00;;;;;;;;;;5019426;28;20068;-68
2022/06/10 15:09:57;;;;;;;0.00;0.00;;;;;;;;;;5016711;28;20058;-67
2022/06/10 15:12:27;;;;;;;0.00;0.00;;;;;;;;;;5022606;28;20056;-68
2022/06/10 15:14:56;;;;;;;0.95;0.88;;;;;;;;;;5019257;28;20042;-69
2022/06/10 15:17:25;;;;;;;0.00;0.00;;;;;;;;;;5029898;28;20122;-67
2022/06/10 15:19:56;;;;;;;0.10;0.10;;;;;;;;;;5006876;28;20691;-68
2022/06/10 15:22:28;;;;;;;0.13;0.08;;;;;;;;;;5031365;28;20046;-68
2022/06/10 15:24:56;;;;;;;0.82;0.20;;;;;;;;;;5030105;28;20073;-67
2022/06/10 15:27:25;;;;;;;0.10;0.10;;;;;;;;;;5025487;28;20053;-68